Weather at Orangeville / Castlewood Field

Public forecast

Using degrees Celsius for public forecast. Weather courtesy of forecast.io.

Closest aviation weather report (METAR) to Orangeville / Castlewood Field

Closest report is CFB Borden, 21.5 nm (39.8 km) NNE. Retrieved 2020/12/04 04:06 UTC (31 minutes ago):

CYBN 040406Z AUTO 16007KT 9SM FEW024 BKN062 01/M02 A2984

Closest aviation forecast (TAF) to Orangeville / Castlewood Field

Closest forecast is CFB Borden, 21.5 nm (39.8 km) NNE. Retrieved 2020-12-04 00:33 UTC (4 hours ago):

TAF TAF CYBN 032330Z 0400/0412 19005KT P6SM OVC025 TEMPO 0400/0405 5SM -RASN BR OVC020 FM040500 VRB03KT 4SM -SNRA BR BKN006 OVC015 RMK FCST BASED ON AUTO OBS NXT FCST BY 040600Z